sensor_id;sensor_type;location;lat;lon;timestamp;temperature;humidity
47336;DHT22;33068;51.990;5.926;2023-07-29T00:00:48;16.90;99.90
47336;DHT22;33068;51.990;5.926;2023-07-29T00:03:15;16.90;99.90
47336;DHT22;33068;51.990;5.926;2023-07-29T00:05:41;16.80;99.90
47336;DHT22;33068;51.990;5.926;2023-07-29T00:08:08;16.80;99.90
47336;DHT22;33068;51.990;5.926;2023-07-29T00:10:36;16.80;99.90
47336;DHT22;33068;51.990;5.926;2023-07-29T00:13:03;16.80;99.90
47336;DHT22;33068;51.990;5.926;2023-07-29T00:15:30;16.80;99.90
47336;DHT22;33068;51.990;5.926;2023-07-29T00:17:56;16.80;99.90
47336;DHT22;33068;51.990;5.926;2023-07-29T00:20:23;16.90;99.90
47336;DHT22;33068;51.990;5.926;2023-07-29T00:22:50;16.80;99.90
47336;DHT22;33068;51.990;5.926;2023-07-29T00:25:18;16.80;99.90
47336;DHT22;33068;51.990;5.926;2023-07-29T00:27:45;16.70;99.90
47336;DHT22;33068;51.990;5.926;2023-07-29T00:30:12;16.90;99.90
47336;DHT22;33068;51.990;5.926;2023-07-29T00:32:38;16.70;99.90
47336;DHT22;33068;51.990;5.926;2023-07-29T00:35:06;16.70;99.90
47336;DHT22;33068;51.990;5.926;2023-07-29T00:37:33;16.70;99.90
47336;DHT22;33068;51.990;5.926;2023-07-29T00:39:59;16.60;99.90
47336;DHT22;33068;51.990;5.926;2023-07-29T00:42:26;16.60;99.90
47336;DHT22;33068;51.990;5.926;2023-07-29T00:44:53;16.60;99.90
47336;DHT22;33068;51.990;5.926;2023-07-29T00:47:20;16.50;99.90
47336;DHT22;33068;51.990;5.926;2023-07-29T00:49:48;16.50;99.90
47336;DHT22;33068;51.990;5.926;2023-07-29T00:52:15;16.50;99.90
47336;DHT22;33068;51.990;5.926;2023-07-29T00:54:43;16.40;99.90
47336;DHT22;33068;51.990;5.926;2023-07-29T00:57:10;16.40;99.90
47336;DHT22;33068;51.990;5.926;2023-07-29T00:59:37;16.60;99.90
47336;DHT22;33068;51.990;5.926;2023-07-29T01:02:04;16.30;99.90
47336;DHT22;33068;51.990;5.926;2023-07-29T01:04:31;16.40;99.90
47336;DHT22;33068;51.990;5.926;2023-07-29T01:07:03;16.40;99.90
47336;DHT22;33068;51.990;5.926;2023-07-29T01:09:39;16.40;99.90
47336;DHT22;33068;51.990;5.926;2023-07-29T01:12:14;16.30;99.90
47336;DHT22;33068;51.990;5.926;2023-07-29T01:14:49;16.30;99.90
47336;DHT22;33068;51.990;5.926;2023-07-29T01:17:23;16.50;99.90
47336;DHT22;33068;51.990;5.926;2023-07-29T01:20:00;16.60;99.90
47336;DHT22;33068;51.990;5.926;2023-07-29T01:22:27;16.60;99.90
47336;DHT22;33068;51.990;5.926;2023-07-29T01:24:57;16.60;99.90
47336;DHT22;33068;51.990;5.926;2023-07-29T01:27:24;16.60;99.90
47336;DHT22;33068;51.990;5.926;2023-07-29T01:29:51;16.70;99.90
47336;DHT22;33068;51.990;5.926;2023-07-29T01:32:19;16.70;99.90
47336;DHT22;33068;51.990;5.926;2023-07-29T01:34:56;16.70;99.90
47336;DHT22;33068;51.990;5.926;2023-07-29T01:37:26;16.60;99.90
47336;DHT22;33068;51.990;5.926;2023-07-29T01:39:55;16.70;99.90
47336;DHT22;33068;51.990;5.926;2023-07-29T01:42:24;16.70;99.90
47336;DHT22;33068;51.990;5.926;2023-07-29T01:44:51;16.70;99.90
47336;DHT22;33068;51.990;5.926;2023-07-29T01:47:18;16.80;99.90
47336;DHT22;33068;51.990;5.926;2023-07-29T01:49:45;16.80;99.90
47336;DHT22;33068;51.990;5.926;2023-07-29T01:52:13;16.80;99.90
47336;DHT22;33068;51.990;5.926;2023-07-29T01:54:39;16.80;99.90
47336;DHT22;33068;51.990;5.926;2023-07-29T01:57:06;16.80;99.90
47336;DHT22;33068;51.990;5.926;2023-07-29T01:59:33;16.90;99.90
47336;DHT22;33068;51.990;5.926;2023-07-29T02:01:59;16.90;99.90
47336;DHT22;33068;51.990;5.926;2023-07-29T02:04:27;16.90;99.90
47336;DHT22;33068;51.990;5.926;2023-07-29T02:06:53;16.90;99.90
47336;DHT22;33068;51.990;5.926;2023-07-29T02:09:20;16.90;99.90
47336;DHT22;33068;51.990;5.926;2023-07-29T02:11:47;17.00;99.90
47336;DHT22;33068;51.990;5.926;2023-07-29T02:14:14;17.10;99.90
47336;DHT22;33068;51.990;5.926;2023-07-29T02:16:41;17.00;99.90
47336;DHT22;33068;51.990;5.926;2023-07-29T02:19:07;17.10;99.90
47336;DHT22;33068;51.990;5.926;2023-07-29T02:21:33;17.10;99.90
47336;DHT22;33068;51.990;5.926;2023-07-29T02:24:01;17.10;99.90
47336;DHT22;33068;51.990;5.926;2023-07-29T02:26:28;17.10;99.90
47336;DHT22;33068;51.990;5.926;2023-07-29T02:28:54;17.20;99.90
47336;DHT22;33068;51.990;5.926;2023-07-29T02:31:23;17.20;99.90
47336;DHT22;33068;51.990;5.926;2023-07-29T02:33:50;17.30;99.90
47336;DHT22;33068;51.990;5.926;2023-07-29T02:36:18;17.30;99.90
47336;DHT22;33068;51.990;5.926;2023-07-29T02:38:45;17.00;99.90
47336;DHT22;33068;51.990;5.926;2023-07-29T02:41:11;17.30;99.90
47336;DHT22;33068;51.990;5.926;2023-07-29T02:43:39;17.30;99.90
47336;DHT22;33068;51.990;5.926;2023-07-29T02:46:07;17.40;99.90
47336;DHT22;33068;51.990;5.926;2023-07-29T02:48:33;17.40;99.90
47336;DHT22;33068;51.990;5.926;2023-07-29T02:51:01;17.40;99.90
47336;DHT22;33068;51.990;5.926;2023-07-29T02:53:27;17.50;99.90
47336;DHT22;33068;51.990;5.926;2023-07-29T02:55:53;17.50;99.90
47336;DHT22;33068;51.990;5.926;2023-07-29T02:58:20;17.60;99.90
47336;DHT22;33068;51.990;5.926;2023-07-29T03:00:46;17.60;99.90
47336;DHT22;33068;51.990;5.926;2023-07-29T03:03:14;17.30;99.90
47336;DHT22;33068;51.990;5.926;2023-07-29T03:05:41;17.50;99.90
47336;DHT22;33068;51.990;5.926;2023-07-29T03:08:08;17.50;99.90
47336;DHT22;33068;51.990;5.926;2023-07-29T03:10:35;17.50;99.90
47336;DHT22;33068;51.990;5.926;2023-07-29T03:13:02;17.50;99.90
47336;DHT22;33068;51.990;5.926;2023-07-29T03:15:28;17.50;99.90
47336;DHT22;33068;51.990;5.926;2023-07-29T03:17:55;17.50;99.90
47336;DHT22;33068;51.990;5.926;2023-07-29T03:20:21;17.50;99.90
47336;DHT22;33068;51.990;5.926;2023-07-29T03:22:48;17.50;99.90
47336;DHT22;33068;51.990;5.926;2023-07-29T03:25:15;17.50;99.90
47336;DHT22;33068;51.990;5.926;2023-07-29T03:27:41;17.60;99.90
47336;DHT22;33068;51.990;5.926;2023-07-29T03:30:08;17.50;99.90
47336;DHT22;33068;51.990;5.926;2023-07-29T03:32:34;17.50;99.90
47336;DHT22;33068;51.990;5.926;2023-07-29T03:35:01;17.50;99.90
47336;DHT22;33068;51.990;5.926;2023-07-29T03:37:28;17.50;99.90
47336;DHT22;33068;51.990;5.926;2023-07-29T03:39:54;17.50;99.90
47336;DHT22;33068;51.990;5.926;2023-07-29T03:42:21;17.40;99.90
47336;DHT22;33068;51.990;5.926;2023-07-29T03:44:48;17.40;99.90
47336;DHT22;33068;51.990;5.926;2023-07-29T03:47:14;17.40;99.90
47336;DHT22;33068;51.990;5.926;2023-07-29T03:49:42;17.40;99.90
47336;DHT22;33068;51.990;5.926;2023-07-29T03:52:10;17.30;99.90
47336;DHT22;33068;51.990;5.926;2023-07-29T03:54:36;17.30;99.90
47336;DHT22;33068;51.990;5.926;2023-07-29T03:57:03;17.00;99.90
47336;DHT22;33068;51.990;5.926;2023-07-29T03:59:30;17.20;99.90
47336;DHT22;33068;51.990;5.926;2023-07-29T04:01:57;17.20;99.90
47336;DHT22;33068;51.990;5.926;2023-07-29T04:04:23;17.20;99.90
47336;DHT22;33068;51.990;5.926;2023-07-29T04:06:49;17.10;99.90
47336;DHT22;33068;51.990;5.926;2023-07-29T04:09:16;17.10;99.90
47336;DHT22;33068;51.990;5.926;2023-07-29T04:11:42;17.10;99.90
47336;DHT22;33068;51.990;5.926;2023-07-29T04:14:09;17.10;99.90
47336;DHT22;33068;51.990;5.926;2023-07-29T04:16:36;17.10;99.90
47336;DHT22;33068;51.990;5.926;2023-07-29T04:19:03;17.10;99.90
47336;DHT22;33068;51.990;5.926;2023-07-29T04:21:29;17.10;99.90
47336;DHT22;33068;51.990;5.926;2023-07-29T04:23:55;17.10;99.90
47336;DHT22;33068;51.990;5.926;2023-07-29T04:26:22;17.00;99.90
47336;DHT22;33068;51.990;5.926;2023-07-29T04:28:48;17.00;99.90
47336;DHT22;33068;51.990;5.926;2023-07-29T04:31:15;17.00;99.90
47336;DHT22;33068;51.990;5.926;2023-07-29T04:33:42;17.00;99.90
47336;DHT22;33068;51.990;5.926;2023-07-29T04:36:10;17.00;99.90
47336;DHT22;33068;51.990;5.926;2023-07-29T04:38:37;17.00;99.90
47336;DHT22;33068;51.990;5.926;2023-07-29T04:41:04;16.90;99.90
47336;DHT22;33068;51.990;5.926;2023-07-29T04:43:33;16.90;99.90
47336;DHT22;33068;51.990;5.926;2023-07-29T04:45:59;16.90;99.90
47336;DHT22;33068;51.990;5.926;2023-07-29T04:48:26;16.90;99.90
47336;DHT22;33068;51.990;5.926;2023-07-29T04:50:55;16.90;99.90
47336;DHT22;33068;51.990;5.926;2023-07-29T04:53:21;16.90;99.90
47336;DHT22;33068;51.990;5.926;2023-07-29T04:55:47;16.90;99.90
47336;DHT22;33068;51.990;5.926;2023-07-29T04:58:14;16.90;99.90
47336;DHT22;33068;51.990;5.926;2023-07-29T05:00:40;17.00;99.90
47336;DHT22;33068;51.990;5.926;2023-07-29T05:03:07;17.00;99.90
47336;DHT22;33068;51.990;5.926;2023-07-29T05:05:33;17.00;99.90
47336;DHT22;33068;51.990;5.926;2023-07-29T05:08:01;17.00;99.90
47336;DHT22;33068;51.990;5.926;2023-07-29T05:10:27;17.00;99.90
47336;DHT22;33068;51.990;5.926;2023-07-29T05:12:54;17.00;99.90
47336;DHT22;33068;51.990;5.926;2023-07-29T05:15:20;17.00;99.90
47336;DHT22;33068;51.990;5.926;2023-07-29T05:17:46;17.00;99.90
47336;DHT22;33068;51.990;5.926;2023-07-29T05:20:13;17.10;99.90
47336;DHT22;33068;51.990;5.926;2023-07-29T05:22:39;17.10;99.90
47336;DHT22;33068;51.990;5.926;2023-07-29T05:25:07;17.20;99.90
47336;DHT22;33068;51.990;5.926;2023-07-29T05:27:34;17.30;99.90
47336;DHT22;33068;51.990;5.926;2023-07-29T05:30:00;17.30;99.90
47336;DHT22;33068;51.990;5.926;2023-07-29T05:32:27;17.30;99.90
47336;DHT22;33068;51.990;5.926;2023-07-29T05:34:53;17.40;99.90
47336;DHT22;33068;51.990;5.926;2023-07-29T05:37:21;17.30;99.90
47336;DHT22;33068;51.990;5.926;2023-07-29T05:39:48;17.40;99.90
47336;DHT22;33068;51.990;5.926;2023-07-29T05:42:15;17.40;99.90
47336;DHT22;33068;51.990;5.926;2023-07-29T05:44:41;17.40;99.90
47336;DHT22;33068;51.990;5.926;2023-07-29T05:47:08;17.40;99.90
47336;DHT22;33068;51.990;5.926;2023-07-29T05:49:35;17.40;99.90
47336;DHT22;33068;51.990;5.926;2023-07-29T05:52:01;17.40;99.90
47336;DHT22;33068;51.990;5.926;2023-07-29T05:54:28;17.40;99.90
47336;DHT22;33068;51.990;5.926;2023-07-29T05:56:54;17.40;99.90
47336;DHT22;33068;51.990;5.926;2023-07-29T05:59:21;17.40;99.90
47336;DHT22;33068;51.990;5.926;2023-07-29T06:01:49;17.50;99.90
47336;DHT22;33068;51.990;5.926;2023-07-29T06:04:16;17.60;99.90
47336;DHT22;33068;51.990;5.926;2023-07-29T06:06:42;17.60;99.90
47336;DHT22;33068;51.990;5.926;2023-07-29T06:09:09;17.70;99.90
47336;DHT22;33068;51.990;5.926;2023-07-29T06:11:35;17.70;99.90
47336;DHT22;33068;51.990;5.926;2023-07-29T06:14:01;17.70;99.90
47336;DHT22;33068;51.990;5.926;2023-07-29T06:16:28;17.60;99.90
47336;DHT22;33068;51.990;5.926;2023-07-29T06:18:55;17.70;99.90
47336;DHT22;33068;51.990;5.926;2023-07-29T06:21:21;17.70;99.90
47336;DHT22;33068;51.990;5.926;2023-07-29T06:23:48;17.70;99.90
47336;DHT22;33068;51.990;5.926;2023-07-29T06:26:14;17.80;99.90
47336;DHT22;33068;51.990;5.926;2023-07-29T06:28:40;18.00;99.90
47336;DHT22;33068;51.990;5.926;2023-07-29T06:31:09;18.10;99.90
47336;DHT22;33068;51.990;5.926;2023-07-29T06:33:38;18.30;99.90
47336;DHT22;33068;51.990;5.926;2023-07-29T06:36:05;18.40;99.90
47336;DHT22;33068;51.990;5.926;2023-07-29T06:38:33;18.50;99.90
47336;DHT22;33068;51.990;5.926;2023-07-29T06:40:59;18.20;99.90
47336;DHT22;33068;51.990;5.926;2023-07-29T06:43:26;18.70;99.90
47336;DHT22;33068;51.990;5.926;2023-07-29T06:45:52;18.80;99.90
47336;DHT22;33068;51.990;5.926;2023-07-29T06:48:18;18.70;99.90
47336;DHT22;33068;51.990;5.926;2023-07-29T06:50:46;18.70;99.90
47336;DHT22;33068;51.990;5.926;2023-07-29T06:53:12;18.60;99.90
47336;DHT22;33068;51.990;5.926;2023-07-29T06:55:39;18.70;99.90
47336;DHT22;33068;51.990;5.926;2023-07-29T06:58:07;18.90;99.90
47336;DHT22;33068;51.990;5.926;2023-07-29T07:00:34;19.10;99.90
47336;DHT22;33068;51.990;5.926;2023-07-29T07:03:03;19.20;99.90
47336;DHT22;33068;51.990;5.926;2023-07-29T07:05:32;19.30;99.90
47336;DHT22;33068;51.990;5.926;2023-07-29T07:07:59;19.20;99.90
47336;DHT22;33068;51.990;5.926;2023-07-29T07:10:26;18.90;99.90
47336;DHT22;33068;51.990;5.926;2023-07-29T07:12:52;19.10;99.90
47336;DHT22;33068;51.990;5.926;2023-07-29T07:15:18;19.30;99.90
47336;DHT22;33068;51.990;5.926;2023-07-29T07:17:45;19.40;99.90
47336;DHT22;33068;51.990;5.926;2023-07-29T07:20:11;19.50;99.90
47336;DHT22;33068;51.990;5.926;2023-07-29T07:22:38;19.50;99.90
47336;DHT22;33068;51.990;5.926;2023-07-29T07:25:06;19.40;99.90
47336;DHT22;33068;51.990;5.926;2023-07-29T07:27:33;19.50;99.90
47336;DHT22;33068;51.990;5.926;2023-07-29T07:29:59;19.60;99.90
47336;DHT22;33068;51.990;5.926;2023-07-29T07:32:26;19.70;99.90
47336;DHT22;33068;51.990;5.926;2023-07-29T07:34:53;19.70;99.90
47336;DHT22;33068;51.990;5.926;2023-07-29T07:37:19;19.90;99.90
47336;DHT22;33068;51.990;5.926;2023-07-29T07:39:45;19.90;99.90
47336;DHT22;33068;51.990;5.926;2023-07-29T07:42:13;19.90;99.90
47336;DHT22;33068;51.990;5.926;2023-07-29T07:44:40;19.90;99.90
47336;DHT22;33068;51.990;5.926;2023-07-29T07:47:07;20.10;99.90
47336;DHT22;33068;51.990;5.926;2023-07-29T07:49:34;20.10;99.90
47336;DHT22;33068;51.990;5.926;2023-07-29T07:52:00;20.10;99.90
47336;DHT22;33068;51.990;5.926;2023-07-29T07:54:26;20.10;99.90
47336;DHT22;33068;51.990;5.926;2023-07-29T07:56:53;20.10;99.90
47336;DHT22;33068;51.990;5.926;2023-07-29T07:59:20;20.00;99.90
47336;DHT22;33068;51.990;5.926;2023-07-29T08:01:46;19.90;99.90
47336;DHT22;33068;51.990;5.926;2023-07-29T08:04:13;19.90;99.90
47336;DHT22;33068;51.990;5.926;2023-07-29T08:06:39;19.90;99.90
47336;DHT22;33068;51.990;5.926;2023-07-29T08:09:05;20.00;99.90
47336;DHT22;33068;51.990;5.926;2023-07-29T08:11:32;20.10;99.90
47336;DHT22;33068;51.990;5.926;2023-07-29T08:13:59;19.90;99.90
47336;DHT22;33068;51.990;5.926;2023-07-29T08:16:26;19.70;99.90
47336;DHT22;33068;51.990;5.926;2023-07-29T08:18:52;19.60;99.90
47336;DHT22;33068;51.990;5.926;2023-07-29T08:21:18;19.60;99.90
47336;DHT22;33068;51.990;5.926;2023-07-29T08:23:45;19.80;99.90
47336;DHT22;33068;51.990;5.926;2023-07-29T08:26:11;19.40;99.90
47336;DHT22;33068;51.990;5.926;2023-07-29T08:28:39;19.80;99.90
47336;DHT22;33068;51.990;5.926;2023-07-29T08:31:06;19.90;99.90
47336;DHT22;33068;51.990;5.926;2023-07-29T08:33:33;19.90;99.90
47336;DHT22;33068;51.990;5.926;2023-07-29T08:36:00;19.90;99.90
47336;DHT22;33068;51.990;5.926;2023-07-29T08:38:27;19.90;99.90
47336;DHT22;33068;51.990;5.926;2023-07-29T08:40:58;20.00;99.90
47336;DHT22;33068;51.990;5.926;2023-07-29T08:43:29;19.90;99.90
47336;DHT22;33068;51.990;5.926;2023-07-29T08:45:57;19.90;99.90
47336;DHT22;33068;51.990;5.926;2023-07-29T08:48:29;19.90;99.90
47336;DHT22;33068;51.990;5.926;2023-07-29T08:51:00;19.80;99.90
47336;DHT22;33068;51.990;5.926;2023-07-29T08:53:27;19.80;99.90
47336;DHT22;33068;51.990;5.926;2023-07-29T08:55:54;20.00;99.90
47336;DHT22;33068;51.990;5.926;2023-07-29T08:58:22;20.40;99.90
47336;DHT22;33068;51.990;5.926;2023-07-29T09:00:49;20.80;99.90
47336;DHT22;33068;51.990;5.926;2023-07-29T09:03:16;21.20;99.90
47336;DHT22;33068;51.990;5.926;2023-07-29T09:05:43;21.30;99.90
47336;DHT22;33068;51.990;5.926;2023-07-29T09:08:10;21.20;99.90
47336;DHT22;33068;51.990;5.926;2023-07-29T09:10:37;20.90;99.90
47336;DHT22;33068;51.990;5.926;2023-07-29T09:13:04;20.60;99.90
47336;DHT22;33068;51.990;5.926;2023-07-29T09:15:33;20.60;99.90
47336;DHT22;33068;51.990;5.926;2023-07-29T09:18:09;20.60;99.90
47336;DHT22;33068;51.990;5.926;2023-07-29T09:20:36;20.50;99.90
47336;DHT22;33068;51.990;5.926;2023-07-29T09:23:02;20.40;99.90
47336;DHT22;33068;51.990;5.926;2023-07-29T09:25:29;20.40;99.90
47336;DHT22;33068;51.990;5.926;2023-07-29T09:27:59;20.40;99.90
47336;DHT22;33068;51.990;5.926;2023-07-29T09:30:26;20.40;99.90
47336;DHT22;33068;51.990;5.926;2023-07-29T09:32:55;20.40;99.90
47336;DHT22;33068;51.990;5.926;2023-07-29T09:35:22;20.50;99.90
47336;DHT22;33068;51.990;5.926;2023-07-29T09:37:48;20.60;99.90
47336;DHT22;33068;51.990;5.926;2023-07-29T09:40:15;20.90;99.90
47336;DHT22;33068;51.990;5.926;2023-07-29T09:42:48;21.00;99.90
47336;DHT22;33068;51.990;5.926;2023-07-29T09:45:22;21.20;99.90
47336;DHT22;33068;51.990;5.926;2023-07-29T09:47:49;21.40;99.90
47336;DHT22;33068;51.990;5.926;2023-07-29T09:50:16;21.50;99.90
47336;DHT22;33068;51.990;5.926;2023-07-29T09:52:43;22.30;99.90
47336;DHT22;33068;51.990;5.926;2023-07-29T09:55:12;22.30;99.90
47336;DHT22;33068;51.990;5.926;2023-07-29T09:57:39;22.10;99.90
47336;DHT22;33068;51.990;5.926;2023-07-29T10:00:10;22.40;99.90
47336;DHT22;33068;51.990;5.926;2023-07-29T10:02:38;22.70;99.90
47336;DHT22;33068;51.990;5.926;2023-07-29T10:05:06;23.50;99.90
47336;DHT22;33068;51.990;5.926;2023-07-29T10:07:34;23.60;99.90
47336;DHT22;33068;51.990;5.926;2023-07-29T10:10:02;23.40;99.90
47336;DHT22;33068;51.990;5.926;2023-07-29T10:12:30;23.10;99.90
47336;DHT22;33068;51.990;5.926;2023-07-29T10:14:59;22.60;99.90
47336;DHT22;33068;51.990;5.926;2023-07-29T10:17:27;22.90;99.90
47336;DHT22;33068;51.990;5.926;2023-07-29T10:19:54;23.10;99.90
47336;DHT22;33068;51.990;5.926;2023-07-29T10:22:25;23.00;99.90
47336;DHT22;33068;51.990;5.926;2023-07-29T10:24:56;23.30;99.90
47336;DHT22;33068;51.990;5.926;2023-07-29T10:27:25;23.20;99.90
47336;DHT22;33068;51.990;5.926;2023-07-29T10:29:55;23.40;99.90
47336;DHT22;33068;51.990;5.926;2023-07-29T10:32:24;23.50;99.90
47336;DHT22;33068;51.990;5.926;2023-07-29T10:34:52;24.00;99.90
47336;DHT22;33068;51.990;5.926;2023-07-29T10:37:19;24.00;99.90
47336;DHT22;33068;51.990;5.926;2023-07-29T10:39:52;23.90;99.90
47336;DHT22;33068;51.990;5.926;2023-07-29T10:42:20;23.90;99.90
47336;DHT22;33068;51.990;5.926;2023-07-29T10:44:50;23.70;99.90
47336;DHT22;33068;51.990;5.926;2023-07-29T10:47:20;23.30;99.90
47336;DHT22;33068;51.990;5.926;2023-07-29T10:49:49;23.50;99.90
47336;DHT22;33068;51.990;5.926;2023-07-29T10:52:39;23.90;99.90
47336;DHT22;33068;51.990;5.926;2023-07-29T10:55:23;23.90;99.90
47336;DHT22;33068;51.990;5.926;2023-07-29T10:57:51;24.00;99.90
47336;DHT22;33068;51.990;5.926;2023-07-29T11:00:20;23.70;99.90
47336;DHT22;33068;51.990;5.926;2023-07-29T11:02:59;23.70;99.90
47336;DHT22;33068;51.990;5.926;2023-07-29T11:05:26;23.50;99.90
47336;DHT22;33068;51.990;5.926;2023-07-29T11:07:54;23.40;99.90
47336;DHT22;33068;51.990;5.926;2023-07-29T11:10:21;23.40;99.90
47336;DHT22;33068;51.990;5.926;2023-07-29T11:12:48;23.20;99.90
47336;DHT22;33068;51.990;5.926;2023-07-29T11:15:21;23.40;99.90
47336;DHT22;33068;51.990;5.926;2023-07-29T11:17:49;23.10;99.90
47336;DHT22;33068;51.990;5.926;2023-07-29T11:20:18;23.20;99.90
47336;DHT22;33068;51.990;5.926;2023-07-29T11:22:44;23.20;99.90
47336;DHT22;33068;51.990;5.926;2023-07-29T11:25:12;23.00;99.90
47336;DHT22;33068;51.990;5.926;2023-07-29T11:27:40;22.80;99.90
47336;DHT22;33068;51.990;5.926;2023-07-29T11:30:09;22.80;99.90
47336;DHT22;33068;51.990;5.926;2023-07-29T11:32:36;22.60;99.90
47336;DHT22;33068;51.990;5.926;2023-07-29T11:35:04;22.50;99.90
47336;DHT22;33068;51.990;5.926;2023-07-29T11:37:32;22.30;99.90
47336;DHT22;33068;51.990;5.926;2023-07-29T11:39:58;22.00;99.90
47336;DHT22;33068;51.990;5.926;2023-07-29T11:42:26;22.00;99.90
47336;DHT22;33068;51.990;5.926;2023-07-29T11:44:53;22.00;99.90
47336;DHT22;33068;51.990;5.926;2023-07-29T11:47:19;21.90;99.90
47336;DHT22;33068;51.990;5.926;2023-07-29T11:49:48;21.60;99.90
47336;DHT22;33068;51.990;5.926;2023-07-29T11:52:15;21.80;99.90
47336;DHT22;33068;51.990;5.926;2023-07-29T11:54:45;21.70;99.90
47336;DHT22;33068;51.990;5.926;2023-07-29T11:57:12;21.60;99.90
47336;DHT22;33068;51.990;5.926;2023-07-29T11:59:40;21.40;99.90
47336;DHT22;33068;51.990;5.926;2023-07-29T12:02:10;21.30;99.90
47336;DHT22;33068;51.990;5.926;2023-07-29T12:04:38;21.00;99.90
47336;DHT22;33068;51.990;5.926;2023-07-29T12:07:05;20.80;99.90
47336;DHT22;33068;51.990;5.926;2023-07-29T12:09:32;20.40;99.90
47336;DHT22;33068;51.990;5.926;2023-07-29T12:11:59;20.10;99.90
47336;DHT22;33068;51.990;5.926;2023-07-29T12:14:27;19.80;99.90
47336;DHT22;33068;51.990;5.926;2023-07-29T12:16:55;19.80;99.90
47336;DHT22;33068;51.990;5.926;2023-07-29T12:19:21;19.60;99.90
47336;DHT22;33068;51.990;5.926;2023-07-29T12:21:48;19.50;99.90
47336;DHT22;33068;51.990;5.926;2023-07-29T12:24:15;19.50;99.90
47336;DHT22;33068;51.990;5.926;2023-07-29T12:26:43;19.50;99.90
47336;DHT22;33068;51.990;5.926;2023-07-29T12:29:13;19.60;99.90
47336;DHT22;33068;51.990;5.926;2023-07-29T12:31:40;19.60;99.90
47336;DHT22;33068;51.990;5.926;2023-07-29T12:34:07;19.60;99.90
47336;DHT22;33068;51.990;5.926;2023-07-29T12:36:44;19.80;99.90
47336;DHT22;33068;51.990;5.926;2023-07-29T12:39:18;19.80;99.90
47336;DHT22;33068;51.990;5.926;2023-07-29T12:41:45;19.90;99.90
47336;DHT22;33068;51.990;5.926;2023-07-29T12:44:11;19.90;99.90
47336;DHT22;33068;51.990;5.926;2023-07-29T12:46:38;19.90;99.90
47336;DHT22;33068;51.990;5.926;2023-07-29T12:49:04;20.00;99.90
47336;DHT22;33068;51.990;5.926;2023-07-29T12:51:31;20.30;99.90
47336;DHT22;33068;51.990;5.926;2023-07-29T12:53:58;20.50;99.90
47336;DHT22;33068;51.990;5.926;2023-07-29T12:56:24;20.70;99.90
47336;DHT22;33068;51.990;5.926;2023-07-29T12:58:50;21.10;99.90
47336;DHT22;33068;51.990;5.926;2023-07-29T13:01:17;21.00;99.90
47336;DHT22;33068;51.990;5.926;2023-07-29T13:03:44;20.90;99.90
47336;DHT22;33068;51.990;5.926;2023-07-29T13:06:10;21.00;99.90
47336;DHT22;33068;51.990;5.926;2023-07-29T13:08:38;21.20;99.90
47336;DHT22;33068;51.990;5.926;2023-07-29T13:11:04;21.30;99.90
47336;DHT22;33068;51.990;5.926;2023-07-29T13:13:32;21.20;99.90
47336;DHT22;33068;51.990;5.926;2023-07-29T13:15:58;21.50;99.90
47336;DHT22;33068;51.990;5.926;2023-07-29T13:18:25;21.60;99.90
47336;DHT22;33068;51.990;5.926;2023-07-29T13:20:51;21.40;99.90
47336;DHT22;33068;51.990;5.926;2023-07-29T13:23:17;21.50;99.90
47336;DHT22;33068;51.990;5.926;2023-07-29T13:25:44;21.70;99.90
47336;DHT22;33068;51.990;5.926;2023-07-29T13:28:11;21.80;99.90
47336;DHT22;33068;51.990;5.926;2023-07-29T13:30:39;21.70;99.90
47336;DHT22;33068;51.990;5.926;2023-07-29T13:33:06;21.80;99.90
47336;DHT22;33068;51.990;5.926;2023-07-29T13:35:33;21.70;99.90
47336;DHT22;33068;51.990;5.926;2023-07-29T13:38:00;21.70;99.90
47336;DHT22;33068;51.990;5.926;2023-07-29T13:40:27;21.60;99.90
47336;DHT22;33068;51.990;5.926;2023-07-29T13:42:54;21.60;99.90
47336;DHT22;33068;51.990;5.926;2023-07-29T13:45:21;21.70;99.90
47336;DHT22;33068;51.990;5.926;2023-07-29T13:47:48;21.90;99.90
47336;DHT22;33068;51.990;5.926;2023-07-29T13:50:14;22.10;99.90
47336;DHT22;33068;51.990;5.926;2023-07-29T13:52:41;22.50;99.90
47336;DHT22;33068;51.990;5.926;2023-07-29T13:55:07;22.50;99.90
47336;DHT22;33068;51.990;5.926;2023-07-29T13:57:34;22.20;99.90
47336;DHT22;33068;51.990;5.926;2023-07-29T14:00:01;22.10;99.90
47336;DHT22;33068;51.990;5.926;2023-07-29T14:02:37;22.40;99.90
47336;DHT22;33068;51.990;5.926;2023-07-29T14:05:04;22.60;99.90
47336;DHT22;33068;51.990;5.926;2023-07-29T14:07:30;22.60;99.90
47336;DHT22;33068;51.990;5.926;2023-07-29T14:09:57;22.80;99.90
47336;DHT22;33068;51.990;5.926;2023-07-29T14:12:23;23.00;99.90
47336;DHT22;33068;51.990;5.926;2023-07-29T14:14:50;23.30;99.90
47336;DHT22;33068;51.990;5.926;2023-07-29T14:17:17;23.20;99.90
47336;DHT22;33068;51.990;5.926;2023-07-29T14:19:44;23.10;99.90
47336;DHT22;33068;51.990;5.926;2023-07-29T14:22:11;23.20;99.90
47336;DHT22;33068;51.990;5.926;2023-07-29T14:24:37;23.00;99.90
47336;DHT22;33068;51.990;5.926;2023-07-29T14:27:04;23.40;99.90
47336;DHT22;33068;51.990;5.926;2023-07-29T14:29:30;23.50;99.90
47336;DHT22;33068;51.990;5.926;2023-07-29T14:31:57;23.50;99.90
47336;DHT22;33068;51.990;5.926;2023-07-29T14:34:25;23.80;99.90
47336;DHT22;33068;51.990;5.926;2023-07-29T14:36:52;23.90;99.90
47336;DHT22;33068;51.990;5.926;2023-07-29T14:39:19;23.50;99.90
47336;DHT22;33068;51.990;5.926;2023-07-29T14:41:45;23.30;99.90
47336;DHT22;33068;51.990;5.926;2023-07-29T14:44:12;23.10;99.90
47336;DHT22;33068;51.990;5.926;2023-07-29T14:46:39;23.00;99.90
47336;DHT22;33068;51.990;5.926;2023-07-29T14:49:05;23.30;99.90
47336;DHT22;33068;51.990;5.926;2023-07-29T14:51:32;24.10;99.90
47336;DHT22;33068;51.990;5.926;2023-07-29T14:53:59;24.60;99.90
47336;DHT22;33068;51.990;5.926;2023-07-29T14:56:25;25.10;99.90
47336;DHT22;33068;51.990;5.926;2023-07-29T14:58:51;25.30;99.90
47336;DHT22;33068;51.990;5.926;2023-07-29T15:01:18;24.80;99.90
47336;DHT22;33068;51.990;5.926;2023-07-29T15:03:44;24.30;99.90
47336;DHT22;33068;51.990;5.926;2023-07-29T15:06:11;24.10;99.90
47336;DHT22;33068;51.990;5.926;2023-07-29T15:08:38;24.10;99.90
47336;DHT22;33068;51.990;5.926;2023-07-29T15:11:04;24.10;99.90
47336;DHT22;33068;51.990;5.926;2023-07-29T15:13:32;23.90;99.90
47336;DHT22;33068;51.990;5.926;2023-07-29T15:15:58;23.80;99.90
47336;DHT22;33068;51.990;5.926;2023-07-29T15:18:25;23.60;99.90
47336;DHT22;33068;51.990;5.926;2023-07-29T15:20:55;23.30;99.90
47336;DHT22;33068;51.990;5.926;2023-07-29T15:23:22;23.00;99.90
47336;DHT22;33068;51.990;5.926;2023-07-29T15:25:49;22.80;99.90
47336;DHT22;33068;51.990;5.926;2023-07-29T15:28:16;22.80;99.90
47336;DHT22;33068;51.990;5.926;2023-07-29T15:30:42;22.70;99.90